Natchez, MS (39120)

12:19 PM CST on January 22, 2017 (GMT -0600)
Woodland Heights | | Change Station

Elev 200 ft 31.55 °N, 91.39 °W | Updated 7 seconds ago

Clear
Clear
63.9 °F
Feels Like 63.9 °F
N
4.0
Wind Variable Wind from South
Gusts 8.1 mph

Today
High -- | Low -- °F
--% Chance of Precip.
Yesterday
High -- | Low -- °F
Precip. -- in
Pressure 29.41 in
Visibility 10.0 miles
Clouds Clear
Dew Point 45 °F
Humidity 50%
Rainfall 0.18 in
Snow Depth Not available.
7:03 AM 5:31 PM
Waning Crescent, 25% visible
METAR KHEZ 221815Z AUTO 26014G23KT 10SM CLR 17/06 A2941 RMK AO1
Pressure 29.41 in
Visibility 10.0 miles
Clouds Clear
Dew Point 45 °F
Humidity 50%
Rainfall 0.18 in
Snow Depth Not available.
7:03 AM 5:31 PM
Waning Crescent, 25% visible
METAR KHEZ 221815Z AUTO 26014G23KT 10SM CLR 17/06 A2941 RMK AO1

Get Your Daily Forecast Email!

Thanks for signing up!

Be on the lookout for a verification email in your inbox.

You'll start receiving the daily forecast at 8 AM.

×

10-Day Weather Forecast

Almanac

Astronomy

Jan. 22, 2017 Rise Set
Actual Time
Civil Twilight
Nautical Twilight
Astronomical Twilight
Moon
Length of Visible Light
Length of Day
Tomorrow will be .
, % of the Moon is Illuminated

Today's Extremes

State Highs State Lows

Community

WunderPhotos

Upload Photos

1,962,540 photos uploaded!

WunderBlog® & News

Nearby

Air Quality

  Air Quality AQ Index Pollutant
Not available.

Snow Depth

Station Depth Elevation

Earthquake Activity

City Distance Mag. Time & Date
Minimum magnitude displayed is 2.5.

Coastal Water Temperatures

Place Temperature

Stations

Nearby Weather Stations

Station Location Temp. Windchill Dew Point Humidity Wind Precip. Elev Updated Type
                   

Watches & Warnings

Low Water Advisory, Small Craft Advisory
Issued: 9:28 AM CST Jan. 22, 2017 – National Weather Service

... Low water advisory remains in effect until noon CST Monday...
... Small Craft Advisory remains in effect until 6 am CST Monday...

* winds... 25 to 30 knots gusts to 35 knots.

* Waves/seas... 5 to 6 feet.

* Water levels... up to 2 feet below normal.

Precautionary/preparedness actions...

A Small Craft Advisory means that wind speeds of 20 to 33 knots
are expected to produce hazardous wave conditions to small craft.
Inexperienced mariners... especially those operating smaller
vessels should avoid navigating in these conditions.

A low water advisory means water levels are expected to be
significantly below average. Mariners should use extreme caution
and transit at the slowest safe navigable speed to minimize
impact.



24/rr